Corpus Christi, TX

1:46 PM CDT on October 25, 2014 (GMT -0500)
Corpus Christi Naval Air Station-Truax | Change Station
CLOSE
Current Station
Airport
Location: Corpus Christi NAS,
Elevation: 20 ft
Nearby Weather Stations

Elev 20 ft 27.69 °N, 97.29 °W | Updated 50 minutes ago

Clear
Clear
81 °F
Feels Like 83 °F
N
8
Wind Variable Wind from NNE

Today
High -- | Low -- °F
--% Chance of Precip.
Yesterday
High -- | Low -- °F
Precip. -- in
7:35 AM 6:51 PM
Waxing Crescent, 4% visible
Pressure 30.15 in
Visibility 10.0 miles
Clouds Clear
Heat Index 83 °F
Dew Point 66 °F
Humidity 60%
Rainfall 0.00 in
Snow Depth Not available.
UV 7 out of 12
Pollen 4.90 out of 12
Ozone Moderate
Flu Activity Local Activity
METAR KNGP 251756Z AUTO 02007KT 10SM CLR 27/19 A3015 RMK AO2 SLP210 T02720189 10272 20189 58007

More Conditions Fewer Conditions

Pressure 30.15 in
Visibility 10.0 miles
Clouds Clear
Heat Index 83 °F
Dew Point 66 °F
Humidity 60%
Rainfall 0.00 in
Snow Depth Not available.
UV 7 out of 12
Pollen 4.90 out of 12
Ozone Moderate
Flu Activity Local Activity
METAR KNGP 251756Z AUTO 02007KT 10SM CLR 27/19 A3015 RMK AO2 SLP210 T02720189 10272 20189 58007

More Conditions Fewer Conditions

10-Day Weather Forecast

Almanac

Astronomy

Oct. 25, 2014 Rise Set
Actual Time 7:35 AM CDT 6:51 PM CDT
Civil Twilight 7:12 AM CDT 7:14 PM CDT
Nautical Twilight 6:44 AM CDT 7:42 PM CDT
Astronomical Twilight 6:17 AM CDT 8:09 PM CDT
Moon 9:09 AM CDT 8:22 PM CDT
Length of Visible Light 12h 02m
Length of Day
11h 15m
Tomorrow will be 1m 31s shorter.
Waxing Crescent, 4% of the Moon is Illuminated
Today
Waxing Crescent
Oct 30
First Quarter
Nov 6
Full
Nov 14
Last Quarter
Nov 22
New

Today's Extremes

State Highs State Lows

Community

WunderPhotos

Upload Photos

1,764,954 photos uploaded!

Nearby

Air Quality

  Air Quality AQ Index Pollutant
Yesterday Moderate
OZONE
Current Moderate
OZONE
Saturday Moderate
OZONE
Saturday Good
PM10
Sunday Good
OZONE
Sunday Good
PM10
Monday Good
OZONE
Monday Good
PM10
Tuesday Good
OZONE
Tuesday Good
PM10

Snow Depth

Station Depth Elevation
No new snow has been reported.

Earthquake Activity

City Distance Mag. Time & Date
No recent earthquake activity has been reported nearby.
Minimum magnitude displayed is 2.5.

Coastal Water Temperatures

Place Temperature
Baffin Bay Point of Rocks, TX 82.0 °F
South Bird Island, TX 78.1 °F
Packery Channel, TX 78.1 °F
Port Aransas, TX 77.0 °F
Malaquite Beach (Corpus Christi), TX 79.0 °F

Nearby Weather Stations